sensor_id;sensor_type;location;lat;lon;timestamp;temperature;humidity
79010;DHT22;73031;44.726;37.760;2024-03-22T00:00:59;10.31;66.31
79010;DHT22;73031;44.726;37.760;2024-03-22T00:02:00;10.38;64.51
79010;DHT22;73031;44.726;37.760;2024-03-22T00:03:01;10.37;64.48
79010;DHT22;73031;44.726;37.760;2024-03-22T00:04:04;10.33;64.86
79010;DHT22;73031;44.726;37.760;2024-03-22T00:05:05;10.30;64.94
79010;DHT22;73031;44.726;37.760;2024-03-22T00:06:06;10.29;65.26
79010;DHT22;73031;44.726;37.760;2024-03-22T00:07:07;10.29;65.28
79010;DHT22;73031;44.726;37.760;2024-03-22T00:08:08;10.30;64.99
79010;DHT22;73031;44.726;37.760;2024-03-22T00:09:10;10.24;64.99
79010;DHT22;73031;44.726;37.760;2024-03-22T00:10:11;10.21;64.68
79010;DHT22;73031;44.726;37.760;2024-03-22T00:11:13;10.18;64.98
79010;DHT22;73031;44.726;37.760;2024-03-22T00:12:15;10.16;65.43
79010;DHT22;73031;44.726;37.760;2024-03-22T00:13:16;10.18;65.00
79010;DHT22;73031;44.726;37.760;2024-03-22T00:14:17;10.13;65.20
79010;DHT22;73031;44.726;37.760;2024-03-22T00:15:18;10.12;65.61
79010;DHT22;73031;44.726;37.760;2024-03-22T00:16:19;10.13;65.54
79010;DHT22;73031;44.726;37.760;2024-03-22T00:17:21;10.10;65.20
79010;DHT22;73031;44.726;37.760;2024-03-22T00:18:22;10.10;65.43
79010;DHT22;73031;44.726;37.760;2024-03-22T00:19:23;10.13;65.91
79010;DHT22;73031;44.726;37.760;2024-03-22T00:20:24;10.13;65.42
79010;DHT22;73031;44.726;37.760;2024-03-22T00:21:25;10.09;65.11
79010;DHT22;73031;44.726;37.760;2024-03-22T00:22:26;10.02;65.03
79010;DHT22;73031;44.726;37.760;2024-03-22T00:23:28;9.99;65.22
79010;DHT22;73031;44.726;37.760;2024-03-22T00:24:30;9.92;65.44
79010;DHT22;73031;44.726;37.760;2024-03-22T00:25:31;9.93;66.73
79010;DHT22;73031;44.726;37.760;2024-03-22T00:26:33;9.90;65.81
79010;DHT22;73031;44.726;37.760;2024-03-22T00:27:34;9.92;65.79
79010;DHT22;73031;44.726;37.760;2024-03-22T00:28:35;9.92;65.64
79010;DHT22;73031;44.726;37.760;2024-03-22T00:29:36;10.00;66.71
79010;DHT22;73031;44.726;37.760;2024-03-22T00:30:37;10.12;65.46
79010;DHT22;73031;44.726;37.760;2024-03-22T00:31:38;10.12;64.42
79010;DHT22;73031;44.726;37.760;2024-03-22T00:32:39;10.03;65.11
79010;DHT22;73031;44.726;37.760;2024-03-22T00:33:40;10.02;65.35
79010;DHT22;73031;44.726;37.760;2024-03-22T00:34:41;10.00;65.26
79010;DHT22;73031;44.726;37.760;2024-03-22T00:35:42;9.95;65.35
79010;DHT22;73031;44.726;37.760;2024-03-22T00:36:43;9.93;65.45
79010;DHT22;73031;44.726;37.760;2024-03-22T00:37:45;9.90;65.48
79010;DHT22;73031;44.726;37.760;2024-03-22T00:38:47;9.87;65.37
79010;DHT22;73031;44.726;37.760;2024-03-22T00:39:48;9.83;65.32
79010;DHT22;73031;44.726;37.760;2024-03-22T00:40:49;9.82;65.44
79010;DHT22;73031;44.726;37.760;2024-03-22T00:41:50;9.78;65.31
79010;DHT22;73031;44.726;37.760;2024-03-22T00:42:51;9.78;66.25
79010;DHT22;73031;44.726;37.760;2024-03-22T00:43:52;9.78;65.42
79010;DHT22;73031;44.726;37.760;2024-03-22T00:44:53;9.81;66.29
79010;DHT22;73031;44.726;37.760;2024-03-22T00:45:55;9.79;65.89
79010;DHT22;73031;44.726;37.760;2024-03-22T00:46:57;9.81;65.34
79010;DHT22;73031;44.726;37.760;2024-03-22T00:47:58;9.82;65.77
79010;DHT22;73031;44.726;37.760;2024-03-22T00:48:59;9.79;65.22
79010;DHT22;73031;44.726;37.760;2024-03-22T00:50:00;9.74;65.91
79010;DHT22;73031;44.726;37.760;2024-03-22T00:51:02;9.72;65.28
79010;DHT22;73031;44.726;37.760;2024-03-22T00:52:03;9.75;68.35
79010;DHT22;73031;44.726;37.760;2024-03-22T00:53:05;9.79;66.64
79010;DHT22;73031;44.726;37.760;2024-03-22T00:54:07;9.83;66.87
79010;DHT22;73031;44.726;37.760;2024-03-22T00:55:08;9.79;66.81
79010;DHT22;73031;44.726;37.760;2024-03-22T00:56:09;9.75;66.34
79010;DHT22;73031;44.726;37.760;2024-03-22T00:57:10;9.78;66.63
79010;DHT22;73031;44.726;37.760;2024-03-22T00:58:11;9.81;65.42
79010;DHT22;73031;44.726;37.760;2024-03-22T00:59:12;9.69;65.12
79010;DHT22;73031;44.726;37.760;2024-03-22T01:00:14;9.65;65.94
79010;DHT22;73031;44.726;37.760;2024-03-22T01:01:16;9.62;66.12
79010;DHT22;73031;44.726;37.760;2024-03-22T01:02:17;9.59;65.68
79010;DHT22;73031;44.726;37.760;2024-03-22T01:03:18;9.57;65.60
79010;DHT22;73031;44.726;37.760;2024-03-22T01:04:19;9.32;65.34
79010;DHT22;73031;44.726;37.760;2024-03-22T01:05:20;9.14;65.92
79010;DHT22;73031;44.726;37.760;2024-03-22T01:06:21;9.09;66.79
79010;DHT22;73031;44.726;37.760;2024-03-22T01:07:25;9.13;67.86
79010;DHT22;73031;44.726;37.760;2024-03-22T01:08:26;9.28;66.79
79010;DHT22;73031;44.726;37.760;2024-03-22T01:09:28;9.28;65.82
79010;DHT22;73031;44.726;37.760;2024-03-22T01:10:29;9.28;66.21
79010;DHT22;73031;44.726;37.760;2024-03-22T01:11:30;9.28;65.90
79010;DHT22;73031;44.726;37.760;2024-03-22T01:12:31;9.26;66.22
79010;DHT22;73031;44.726;37.760;2024-03-22T01:13:32;9.31;66.21
79010;DHT22;73031;44.726;37.760;2024-03-22T01:14:34;9.40;66.49
79010;DHT22;73031;44.726;37.760;2024-03-22T01:15:35;9.41;64.90
79010;DHT22;73031;44.726;37.760;2024-03-22T01:16:36;9.35;65.40
79010;DHT22;73031;44.726;37.760;2024-03-22T01:17:37;9.32;66.52
79010;DHT22;73031;44.726;37.760;2024-03-22T01:18:38;9.34;65.91
79010;DHT22;73031;44.726;37.760;2024-03-22T01:19:39;9.30;65.54
79010;DHT22;73031;44.726;37.760;2024-03-22T01:20:40;9.30;65.65
79010;DHT22;73031;44.726;37.760;2024-03-22T01:21:43;9.19;65.33
79010;DHT22;73031;44.726;37.760;2024-03-22T01:22:44;9.17;65.67
79010;DHT22;73031;44.726;37.760;2024-03-22T01:23:45;9.17;67.92
79010;DHT22;73031;44.726;37.760;2024-03-22T01:24:46;9.23;66.62
79010;DHT22;73031;44.726;37.760;2024-03-22T01:25:47;9.21;66.41
79010;DHT22;73031;44.726;37.760;2024-03-22T01:26:48;9.23;65.83
79010;DHT22;73031;44.726;37.760;2024-03-22T01:27:49;9.17;66.42
79010;DHT22;73031;44.726;37.760;2024-03-22T01:28:50;9.23;66.55
79010;DHT22;73031;44.726;37.760;2024-03-22T01:29:51;9.24;65.59
79010;DHT22;73031;44.726;37.760;2024-03-22T01:30:53;9.19;65.96
79010;DHT22;73031;44.726;37.760;2024-03-22T01:31:54;9.23;66.47
79010;DHT22;73031;44.726;37.760;2024-03-22T01:32:55;9.24;66.29
79010;DHT22;73031;44.726;37.760;2024-03-22T01:33:56;9.28;66.06
79010;DHT22;73031;44.726;37.760;2024-03-22T01:34:57;9.30;65.10
79010;DHT22;73031;44.726;37.760;2024-03-22T01:35:58;9.26;65.22
79010;DHT22;73031;44.726;37.760;2024-03-22T01:37:00;9.20;65.67
79010;DHT22;73031;44.726;37.760;2024-03-22T01:38:01;9.26;66.04
79010;DHT22;73031;44.726;37.760;2024-03-22T01:39:03;9.30;65.55
79010;DHT22;73031;44.726;37.760;2024-03-22T01:40:04;9.28;65.45
79010;DHT22;73031;44.726;37.760;2024-03-22T01:41:06;9.26;65.29
79010;DHT22;73031;44.726;37.760;2024-03-22T01:42:07;9.27;66.98
79010;DHT22;73031;44.726;37.760;2024-03-22T01:43:08;9.27;65.63
79010;DHT22;73031;44.726;37.760;2024-03-22T01:44:09;9.26;66.64
79010;DHT22;73031;44.726;37.760;2024-03-22T01:45:13;9.24;65.11
79010;DHT22;73031;44.726;37.760;2024-03-22T01:46:15;9.20;65.36
79010;DHT22;73031;44.726;37.760;2024-03-22T01:47:17;9.12;65.59
79010;DHT22;73031;44.726;37.760;2024-03-22T01:48:18;9.09;65.65
79010;DHT22;73031;44.726;37.760;2024-03-22T01:49:19;9.03;65.49
79010;DHT22;73031;44.726;37.760;2024-03-22T01:50:23;9.12;66.39
79010;DHT22;73031;44.726;37.760;2024-03-22T01:51:24;9.17;65.16
79010;DHT22;73031;44.726;37.760;2024-03-22T01:52:25;9.12;64.86
79010;DHT22;73031;44.726;37.760;2024-03-22T01:53:26;9.02;65.10
79010;DHT22;73031;44.726;37.760;2024-03-22T01:54:27;8.96;65.36
79010;DHT22;73031;44.726;37.760;2024-03-22T01:55:28;8.90;65.38
79010;DHT22;73031;44.726;37.760;2024-03-22T01:56:30;8.87;65.61
79010;DHT22;73031;44.726;37.760;2024-03-22T01:57:31;8.95;67.23
79010;DHT22;73031;44.726;37.760;2024-03-22T01:58:33;8.96;65.30
79010;DHT22;73031;44.726;37.760;2024-03-22T01:59:34;8.89;65.05
79010;DHT22;73031;44.726;37.760;2024-03-22T02:00:35;8.93;66.80
79010;DHT22;73031;44.726;37.760;2024-03-22T02:01:36;9.00;65.04
79010;DHT22;73031;44.726;37.760;2024-03-22T02:02:37;8.97;65.21
79010;DHT22;73031;44.726;37.760;2024-03-22T02:03:39;8.99;66.40
79010;DHT22;73031;44.726;37.760;2024-03-22T02:04:40;9.02;65.22
79010;DHT22;73031;44.726;37.760;2024-03-22T02:05:41;8.92;64.67
79010;DHT22;73031;44.726;37.760;2024-03-22T02:06:42;8.82;64.87
79010;DHT22;73031;44.726;37.760;2024-03-22T02:07:43;8.71;65.57
79010;DHT22;73031;44.726;37.760;2024-03-22T02:08:44;8.75;67.36
79010;DHT22;73031;44.726;37.760;2024-03-22T02:09:45;8.76;65.48
79010;DHT22;73031;44.726;37.760;2024-03-22T02:10:47;8.75;65.74
79010;DHT22;73031;44.726;37.760;2024-03-22T02:11:48;8.71;65.60
79010;DHT22;73031;44.726;37.760;2024-03-22T02:12:49;8.62;66.00
79010;DHT22;73031;44.726;37.760;2024-03-22T02:13:52;8.57;65.48
79010;DHT22;73031;44.726;37.760;2024-03-22T02:14:53;8.48;65.63
79010;DHT22;73031;44.726;37.760;2024-03-22T02:15:54;8.45;66.08
79010;DHT22;73031;44.726;37.760;2024-03-22T02:16:55;8.52;66.49
79010;DHT22;73031;44.726;37.760;2024-03-22T02:17:56;8.61;66.28
79010;DHT22;73031;44.726;37.760;2024-03-22T02:18:57;8.62;65.76
79010;DHT22;73031;44.726;37.760;2024-03-22T02:19:59;8.57;65.89
79010;DHT22;73031;44.726;37.760;2024-03-22T02:21:00;8.58;66.40
79010;DHT22;73031;44.726;37.760;2024-03-22T02:22:01;8.58;66.08
79010;DHT22;73031;44.726;37.760;2024-03-22T02:23:02;8.61;65.83
79010;DHT22;73031;44.726;37.760;2024-03-22T02:24:04;8.61;65.79
79010;DHT22;73031;44.726;37.760;2024-03-22T02:25:05;8.55;65.76
79010;DHT22;73031;44.726;37.760;2024-03-22T02:26:08;8.51;65.92
79010;DHT22;73031;44.726;37.760;2024-03-22T02:27:09;8.52;66.37
79010;DHT22;73031;44.726;37.760;2024-03-22T02:28:10;8.58;66.02
79010;DHT22;73031;44.726;37.760;2024-03-22T02:29:11;8.58;65.79
79010;DHT22;73031;44.726;37.760;2024-03-22T02:30:12;8.52;65.59
79010;DHT22;73031;44.726;37.760;2024-03-22T02:31:16;8.48;65.80
79010;DHT22;73031;44.726;37.760;2024-03-22T02:32:17;8.44;66.37
79010;DHT22;73031;44.726;37.760;2024-03-22T02:33:18;8.45;65.88
79010;DHT22;73031;44.726;37.760;2024-03-22T02:34:19;8.41;65.96
79010;DHT22;73031;44.726;37.760;2024-03-22T02:35:20;8.34;66.03
79010;DHT22;73031;44.726;37.760;2024-03-22T02:36:22;8.29;66.50
79010;DHT22;73031;44.726;37.760;2024-03-22T02:37:23;8.31;66.68
79010;DHT22;73031;44.726;37.760;2024-03-22T02:38:24;8.31;66.76
79010;DHT22;73031;44.726;37.760;2024-03-22T02:39:25;8.30;66.43
79010;DHT22;73031;44.726;37.760;2024-03-22T02:40:26;8.22;66.82
79010;DHT22;73031;44.726;37.760;2024-03-22T02:41:27;8.22;67.09
79010;DHT22;73031;44.726;37.760;2024-03-22T02:42:28;8.31;67.48
79010;DHT22;73031;44.726;37.760;2024-03-22T02:43:29;8.45;67.11
79010;DHT22;73031;44.726;37.760;2024-03-22T02:44:30;8.50;66.75
79010;DHT22;73031;44.726;37.760;2024-03-22T02:45:32;8.44;66.56
79010;DHT22;73031;44.726;37.760;2024-03-22T02:46:33;8.34;66.44
79010;DHT22;73031;44.726;37.760;2024-03-22T02:47:34;8.34;66.78
79010;DHT22;73031;44.726;37.760;2024-03-22T02:48:35;8.34;67.01
79010;DHT22;73031;44.726;37.760;2024-03-22T02:49:38;8.40;67.06
79010;DHT22;73031;44.726;37.760;2024-03-22T02:50:40;8.41;67.08
79010;DHT22;73031;44.726;37.760;2024-03-22T02:51:41;8.50;67.53
79010;DHT22;73031;44.726;37.760;2024-03-22T02:52:42;8.47;65.91
79010;DHT22;73031;44.726;37.760;2024-03-22T02:53:43;8.34;66.09
79010;DHT22;73031;44.726;37.760;2024-03-22T02:54:44;8.31;66.16
79010;DHT22;73031;44.726;37.760;2024-03-22T02:55:45;8.26;66.10
79010;DHT22;73031;44.726;37.760;2024-03-22T02:56:47;8.20;66.09
79010;DHT22;73031;44.726;37.760;2024-03-22T02:57:49;8.17;66.40
79010;DHT22;73031;44.726;37.760;2024-03-22T02:58:50;8.22;66.41
79010;DHT22;73031;44.726;37.760;2024-03-22T02:59:51;8.14;66.05
79010;DHT22;73031;44.726;37.760;2024-03-22T03:00:52;8.13;67.51
79010;DHT22;73031;44.726;37.760;2024-03-22T03:01:53;8.23;67.23
79010;DHT22;73031;44.726;37.760;2024-03-22T03:02:55;8.23;66.15
79010;DHT22;73031;44.726;37.760;2024-03-22T03:03:56;8.13;65.66
79010;DHT22;73031;44.726;37.760;2024-03-22T03:04:57;7.99;65.80
79010;DHT22;73031;44.726;37.760;2024-03-22T03:05:58;7.86;66.30
79010;DHT22;73031;44.726;37.760;2024-03-22T03:06:59;7.82;66.57
79010;DHT22;73031;44.726;37.760;2024-03-22T03:08:00;7.82;67.03
79010;DHT22;73031;44.726;37.760;2024-03-22T03:09:02;7.83;66.92
79010;DHT22;73031;44.726;37.760;2024-03-22T03:10:05;7.78;66.96
79010;DHT22;73031;44.726;37.760;2024-03-22T03:11:07;7.72;67.12
79010;DHT22;73031;44.726;37.760;2024-03-22T03:12:08;7.62;67.44
79010;DHT22;73031;44.726;37.760;2024-03-22T03:13:09;7.58;67.50
79010;DHT22;73031;44.726;37.760;2024-03-22T03:14:10;7.44;67.44
79010;DHT22;73031;44.726;37.760;2024-03-22T03:15:11;7.37;68.31
79010;DHT22;73031;44.726;37.760;2024-03-22T03:16:13;7.40;68.10
79010;DHT22;73031;44.726;37.760;2024-03-22T03:17:14;7.41;67.78
79010;DHT22;73031;44.726;37.760;2024-03-22T03:18:15;7.31;67.98
79010;DHT22;73031;44.726;37.760;2024-03-22T03:19:16;7.33;68.46
79010;DHT22;73031;44.726;37.760;2024-03-22T03:20:17;7.28;68.23
79010;DHT22;73031;44.726;37.760;2024-03-22T03:21:18;7.27;68.44
79010;DHT22;73031;44.726;37.760;2024-03-22T03:22:19;7.27;68.49
79010;DHT22;73031;44.726;37.760;2024-03-22T03:23:20;7.24;68.38
79010;DHT22;73031;44.726;37.760;2024-03-22T03:24:21;7.20;68.56
79010;DHT22;73031;44.726;37.760;2024-03-22T03:25:22;7.16;68.44
79010;DHT22;73031;44.726;37.760;2024-03-22T03:26:23;7.13;69.02
79010;DHT22;73031;44.726;37.760;2024-03-22T03:27:24;7.16;68.89
79010;DHT22;73031;44.726;37.760;2024-03-22T03:28:25;7.19;68.69
79010;DHT22;73031;44.726;37.760;2024-03-22T03:29:28;7.19;68.93
79010;DHT22;73031;44.726;37.760;2024-03-22T03:30:29;7.20;68.94
79010;DHT22;73031;44.726;37.760;2024-03-22T03:31:30;7.14;68.62
79010;DHT22;73031;44.726;37.760;2024-03-22T03:32:31;7.09;69.28
79010;DHT22;73031;44.726;37.760;2024-03-22T03:33:32;7.10;69.30
79010;DHT22;73031;44.726;37.760;2024-03-22T03:34:33;7.00;69.58
79010;DHT22;73031;44.726;37.760;2024-03-22T03:35:34;7.09;69.29
79010;DHT22;73031;44.726;37.760;2024-03-22T03:36:35;7.03;69.18
79010;DHT22;73031;44.726;37.760;2024-03-22T03:37:37;6.97;70.12
79010;DHT22;73031;44.726;37.760;2024-03-22T03:38:38;7.00;70.52
79010;DHT22;73031;44.726;37.760;2024-03-22T03:39:39;6.97;69.77
79010;DHT22;73031;44.726;37.760;2024-03-22T03:40:40;6.96;70.02
79010;DHT22;73031;44.726;37.760;2024-03-22T03:41:41;6.96;70.40
79010;DHT22;73031;44.726;37.760;2024-03-22T03:42:43;7.00;70.39
79010;DHT22;73031;44.726;37.760;2024-03-22T03:43:44;7.02;69.40
79010;DHT22;73031;44.726;37.760;2024-03-22T03:44:45;6.92;68.80
79010;DHT22;73031;44.726;37.760;2024-03-22T03:45:46;6.82;68.85
79010;DHT22;73031;44.726;37.760;2024-03-22T03:46:47;6.74;69.88
79010;DHT22;73031;44.726;37.760;2024-03-22T03:47:48;6.79;70.74
79010;DHT22;73031;44.726;37.760;2024-03-22T03:48:49;6.68;71.18
79010;DHT22;73031;44.726;37.760;2024-03-22T03:49:50;6.59;71.86
79010;DHT22;73031;44.726;37.760;2024-03-22T03:50:53;6.59;72.53
79010;DHT22;73031;44.726;37.760;2024-03-22T03:52:03;6.59;72.82
79010;DHT22;73031;44.726;37.760;2024-03-22T03:53:04;6.61;72.68
79010;DHT22;73031;44.726;37.760;2024-03-22T03:54:05;6.58;72.04
79010;DHT22;73031;44.726;37.760;2024-03-22T03:55:07;6.55;72.29
79010;DHT22;73031;44.726;37.760;2024-03-22T03:56:08;6.54;72.66
79010;DHT22;73031;44.726;37.760;2024-03-22T03:57:09;6.82;84.74
79010;DHT22;73031;44.726;37.760;2024-03-22T03:58:10;6.96;74.43
79010;DHT22;73031;44.726;37.760;2024-03-22T03:59:11;6.89;73.15
79010;DHT22;73031;44.726;37.760;2024-03-22T04:00:12;6.85;73.14
79010;DHT22;73031;44.726;37.760;2024-03-22T04:01:13;6.81;73.04
79010;DHT22;73031;44.726;37.760;2024-03-22T04:02:15;6.75;72.23
79010;DHT22;73031;44.726;37.760;2024-03-22T04:03:16;6.71;72.48
79010;DHT22;73031;44.726;37.760;2024-03-22T04:04:17;6.67;72.20
79010;DHT22;73031;44.726;37.760;2024-03-22T04:05:18;6.71;73.07
79010;DHT22;73031;44.726;37.760;2024-03-22T04:06:20;6.84;74.55
79010;DHT22;73031;44.726;37.760;2024-03-22T04:07:21;6.96;73.00
79010;DHT22;73031;44.726;37.760;2024-03-22T04:08:22;6.95;72.41
79010;DHT22;73031;44.726;37.760;2024-03-22T04:09:23;7.10;75.44
79010;DHT22;73031;44.726;37.760;2024-03-22T04:10:24;7.14;71.82
79010;DHT22;73031;44.726;37.760;2024-03-22T04:11:26;7.07;71.62
79010;DHT22;73031;44.726;37.760;2024-03-22T04:12:27;7.03;71.07
79010;DHT22;73031;44.726;37.760;2024-03-22T04:13:28;7.02;71.22
79010;DHT22;73031;44.726;37.760;2024-03-22T04:14:29;6.99;71.75
79010;DHT22;73031;44.726;37.760;2024-03-22T04:15:34;6.96;71.75
79010;DHT22;73031;44.726;37.760;2024-03-22T04:16:35;6.95;71.60
79010;DHT22;73031;44.726;37.760;2024-03-22T04:17:36;6.92;72.13
79010;DHT22;73031;44.726;37.760;2024-03-22T04:18:37;6.97;72.09
79010;DHT22;73031;44.726;37.760;2024-03-22T04:19:38;6.96;71.53
79010;DHT22;73031;44.726;37.760;2024-03-22T04:20:39;6.89;71.76
79010;DHT22;73031;44.726;37.760;2024-03-22T04:21:40;6.84;71.61
79010;DHT22;73031;44.726;37.760;2024-03-22T04:22:41;6.75;72.13
79010;DHT22;73031;44.726;37.760;2024-03-22T04:23:43;6.74;71.62
79010;DHT22;73031;44.726;37.760;2024-03-22T04:24:44;6.63;72.39
79010;DHT22;73031;44.726;37.760;2024-03-22T04:25:55;6.58;72.74
79010;DHT22;73031;44.726;37.760;2024-03-22T04:26:56;6.61;72.94
79010;DHT22;73031;44.726;37.760;2024-03-22T04:27:57;6.63;72.70
79010;DHT22;73031;44.726;37.760;2024-03-22T04:28:58;6.67;72.71
79010;DHT22;73031;44.726;37.760;2024-03-22T04:30:00;6.68;72.58
79010;DHT22;73031;44.726;37.760;2024-03-22T04:32:03;6.77;71.81
79010;DHT22;73031;44.726;37.760;2024-03-22T04:33:04;6.81;72.25
79010;DHT22;73031;44.726;37.760;2024-03-22T04:34:05;6.79;71.70
79010;DHT22;73031;44.726;37.760;2024-03-22T04:35:08;6.78;72.28
79010;DHT22;73031;44.726;37.760;2024-03-22T04:36:09;6.89;71.85
79010;DHT22;73031;44.726;37.760;2024-03-22T04:37:10;6.79;71.25
79010;DHT22;73031;44.726;37.760;2024-03-22T04:38:15;6.89;73.53
79010;DHT22;73031;44.726;37.760;2024-03-22T04:39:16;6.97;71.92
79010;DHT22;73031;44.726;37.760;2024-03-22T04:40:17;6.96;71.62
79010;DHT22;73031;44.726;37.760;2024-03-22T04:41:18;6.99;73.60
79010;DHT22;73031;44.726;37.760;2024-03-22T04:42:20;7.10;75.23
79010;DHT22;73031;44.726;37.760;2024-03-22T04:43:21;7.13;72.09
79010;DHT22;73031;44.726;37.760;2024-03-22T04:44:22;7.09;71.34
79010;DHT22;73031;44.726;37.760;2024-03-22T04:45:23;6.96;71.34
79010;DHT22;73031;44.726;37.760;2024-03-22T04:46:24;6.95;72.10
79010;DHT22;73031;44.726;37.760;2024-03-22T04:47:25;7.05;73.20
79010;DHT22;73031;44.726;37.760;2024-03-22T04:48:26;7.09;73.58
79010;DHT22;73031;44.726;37.760;2024-03-22T04:49:27;7.10;72.82
79010;DHT22;73031;44.726;37.760;2024-03-22T04:50:28;7.09;72.37
79010;DHT22;73031;44.726;37.760;2024-03-22T04:51:29;7.00;71.62
79010;DHT22;73031;44.726;37.760;2024-03-22T04:52:30;6.93;72.78
79010;DHT22;73031;44.726;37.760;2024-03-22T04:53:32;6.95;73.52
79010;DHT22;73031;44.726;37.760;2024-03-22T04:54:33;6.99;73.01
79010;DHT22;73031;44.726;37.760;2024-03-22T04:55:34;7.02;72.38
79010;DHT22;73031;44.726;37.760;2024-03-22T04:56:35;6.91;72.23
79010;DHT22;73031;44.726;37.760;2024-03-22T04:57:36;6.85;72.41
79010;DHT22;73031;44.726;37.760;2024-03-22T04:58:37;6.85;73.46
79010;DHT22;73031;44.726;37.760;2024-03-22T04:59:38;6.93;73.66
79010;DHT22;73031;44.726;37.760;2024-03-22T05:00:43;7.03;74.96
79010;DHT22;73031;44.726;37.760;2024-03-22T05:01:45;7.14;73.91
79010;DHT22;73031;44.726;37.760;2024-03-22T05:02:46;7.07;71.84
79010;DHT22;73031;44.726;37.760;2024-03-22T05:03:48;7.02;71.58
79010;DHT22;73031;44.726;37.760;2024-03-22T05:04:49;6.97;71.00
79010;DHT22;73031;44.726;37.760;2024-03-22T05:05:51;7.02;73.28
79010;DHT22;73031;44.726;37.760;2024-03-22T05:06:52;7.09;74.00
79010;DHT22;73031;44.726;37.760;2024-03-22T05:07:53;7.16;73.69
79010;DHT22;73031;44.726;37.760;2024-03-22T05:08:54;7.16;71.67
79010;DHT22;73031;44.726;37.760;2024-03-22T05:09:55;7.16;73.06
79010;DHT22;73031;44.726;37.760;2024-03-22T05:10:56;7.20;74.17
79010;DHT22;73031;44.726;37.760;2024-03-22T05:11:57;7.23;71.97
79010;DHT22;73031;44.726;37.760;2024-03-22T05:12:58;7.24;71.73
79010;DHT22;73031;44.726;37.760;2024-03-22T05:13:59;7.23;71.20
79010;DHT22;73031;44.726;37.760;2024-03-22T05:15:04;7.22;71.39
79010;DHT22;73031;44.726;37.760;2024-03-22T05:16:06;7.22;71.94
79010;DHT22;73031;44.726;37.760;2024-03-22T05:17:07;7.27;72.87
79010;DHT22;73031;44.726;37.760;2024-03-22T05:18:09;7.40;71.64
79010;DHT22;73031;44.726;37.760;2024-03-22T05:19:10;7.33;70.14
79010;DHT22;73031;44.726;37.760;2024-03-22T05:20:11;7.30;70.62
79010;DHT22;73031;44.726;37.760;2024-03-22T05:21:12;7.33;70.74
79010;DHT22;73031;44.726;37.760;2024-03-22T05:22:13;7.28;71.49
79010;DHT22;73031;44.726;37.760;2024-03-22T05:23:14;7.41;72.68
79010;DHT22;73031;44.726;37.760;2024-03-22T05:24:16;7.55;74.63
79010;DHT22;73031;44.726;37.760;2024-03-22T05:25:18;7.51;70.92
79010;DHT22;73031;44.726;37.760;2024-03-22T05:26:19;7.58;71.09
79010;DHT22;73031;44.726;37.760;2024-03-22T05:27:21;7.57;72.67
79010;DHT22;73031;44.726;37.760;2024-03-22T05:28:23;7.69;74.52
79010;DHT22;73031;44.726;37.760;2024-03-22T05:29:24;7.64;72.12
79010;DHT22;73031;44.726;37.760;2024-03-22T05:30:25;7.57;72.85
79010;DHT22;73031;44.726;37.760;2024-03-22T05:31:26;7.52;72.04
79010;DHT22;73031;44.726;37.760;2024-03-22T05:32:27;7.47;72.11
79010;DHT22;73031;44.726;37.760;2024-03-22T05:33:29;7.44;72.80
79010;DHT22;73031;44.726;37.760;2024-03-22T05:34:30;7.26;72.28
79010;DHT22;73031;44.726;37.760;2024-03-22T05:35:32;7.17;76.21
79010;DHT22;73031;44.726;37.760;2024-03-22T05:36:33;7.16;75.63
79010;DHT22;73031;44.726;37.760;2024-03-22T05:37:34;7.27;79.34
79010;DHT22;73031;44.726;37.760;2024-03-22T05:38:36;7.30;75.68
79010;DHT22;73031;44.726;37.760;2024-03-22T05:39:37;7.10;74.52
79010;DHT22;73031;44.726;37.760;2024-03-22T05:40:38;6.96;75.18
79010;DHT22;73031;44.726;37.760;2024-03-22T05:41:39;6.91;76.21
79010;DHT22;73031;44.726;37.760;2024-03-22T05:42:40;6.89;76.19
79010;DHT22;73031;44.726;37.760;2024-03-22T05:43:42;6.79;75.46
79010;DHT22;73031;44.726;37.760;2024-03-22T05:44:44;6.79;76.64
79010;DHT22;73031;44.726;37.760;2024-03-22T05:45:45;6.81;77.37
79010;DHT22;73031;44.726;37.760;2024-03-22T05:46:47;6.82;76.70
79010;DHT22;73031;44.726;37.760;2024-03-22T05:47:48;6.81;76.70
79010;DHT22;73031;44.726;37.760;2024-03-22T05:48:49;6.79;77.81
79010;DHT22;73031;44.726;37.760;2024-03-22T05:49:51;6.79;76.03
79010;DHT22;73031;44.726;37.760;2024-03-22T05:50:53;6.79;76.31
79010;DHT22;73031;44.726;37.760;2024-03-22T05:51:54;6.75;76.56
79010;DHT22;73031;44.726;37.760;2024-03-22T05:52:55;6.75;76.20
79010;DHT22;73031;44.726;37.760;2024-03-22T05:53:57;6.78;74.84
79010;DHT22;73031;44.726;37.760;2024-03-22T05:54:58;6.67;74.29
79010;DHT22;73031;44.726;37.760;2024-03-22T05:55:59;6.57;75.25
79010;DHT22;73031;44.726;37.760;2024-03-22T05:57:00;6.55;76.73
79010;DHT22;73031;44.726;37.760;2024-03-22T05:58:01;6.57;77.36
79010;DHT22;73031;44.726;37.760;2024-03-22T05:59:02;6.57;77.97
79010;DHT22;73031;44.726;37.760;2024-03-22T06:00:05;6.48;78.37
79010;DHT22;73031;44.726;37.760;2024-03-22T06:01:09;6.65;79.87
79010;DHT22;73031;44.726;37.760;2024-03-22T06:02:10;6.85;80.23
79010;DHT22;73031;44.726;37.760;2024-03-22T06:03:11;6.96;80.27
79010;DHT22;73031;44.726;37.760;2024-03-22T06:04:12;6.91;81.14
79010;DHT22;73031;44.726;37.760;2024-03-22T06:05:13;6.78;80.77
79010;DHT22;73031;44.726;37.760;2024-03-22T06:06:14;6.69;80.20
79010;DHT22;73031;44.726;37.760;2024-03-22T06:07:17;6.63;80.31
79010;DHT22;73031;44.726;37.760;2024-03-22T06:08:18;6.48;79.87
79010;DHT22;73031;44.726;37.760;2024-03-22T06:09:21;6.55;82.32
79010;DHT22;73031;44.726;37.760;2024-03-22T06:10:34;6.55;82.53
79010;DHT22;73031;44.726;37.760;2024-03-22T06:11:35;6.50;80.18
79010;DHT22;73031;44.726;37.760;2024-03-22T06:12:37;6.41;81.72
79010;DHT22;73031;44.726;37.760;2024-03-22T06:13:38;6.59;84.07
79010;DHT22;73031;44.726;37.760;2024-03-22T06:14:40;6.65;82.48
79010;DHT22;73031;44.726;37.760;2024-03-22T06:15:43;6.81;83.73
79010;DHT22;73031;44.726;37.760;2024-03-22T06:16:46;6.72;80.50
79010;DHT22;73031;44.726;37.760;2024-03-22T06:17:47;6.58;81.98
79010;DHT22;73031;44.726;37.760;2024-03-22T06:18:49;6.67;83.49
79010;DHT22;73031;44.726;37.760;2024-03-22T06:19:50;6.63;83.05
79010;DHT22;73031;44.726;37.760;2024-03-22T06:20:51;6.82;84.23
79010;DHT22;73031;44.726;37.760;2024-03-22T06:21:55;6.85;82.75
79010;DHT22;73031;44.726;37.760;2024-03-22T06:22:57;6.47;79.90
79010;DHT22;73031;44.726;37.760;2024-03-22T06:23:58;6.23;80.15
79010;DHT22;73031;44.726;37.760;2024-03-22T06:24:59;6.17;81.80
79010;DHT22;73031;44.726;37.760;2024-03-22T06:26:00;6.22;83.36
79010;DHT22;73031;44.726;37.760;2024-03-22T06:27:02;6.45;84.82
79010;DHT22;73031;44.726;37.760;2024-03-22T06:28:03;6.67;85.62
79010;DHT22;73031;44.726;37.760;2024-03-22T06:29:05;6.69;83.90